Chrisanthi — SX7108 — position and weather

sailwx.info

Track history (hours):
 
Tides and Currents Weather Stations Pressure Air Temp Water Temp Dewpoint Dewpoint Depression Visibility Wind Speed Wind Dir Waves Ship Positions

Chrisanthi

Last reported at 2017-Mar-17 11:20 UTC. Time now 2017-Mar-23 12:32 UTC.
Position N 37°55' E 023°05'.

Length 56 m; draft 3.9 m.

Type: Ship (hazmat cat A). MMSI: 237009100.

Date/timePositionNaut miles runAvg speedWind from/ knotsBaromVisibWave heightAir tempDewpointWater temp
2017-Mar-17 11:20N 37°55' E 023°05'0 0.0
2017-Mar-17 10:34N 37°55' E 023°05'0 0.0
2017-Mar-17 09:30N 37°55' E 023°05'0 0.0
2017-Mar-17 08:27N 37°55' E 023°05'0 0.0
2017-Mar-17 07:30N 37°55' E 023°05'0 0.0
2017-Mar-17 06:32N 37°55' E 023°05'0 0.0
2017-Mar-17 05:32N 37°55' E 023°05'0 0.0
2017-Mar-17 04:33N 37°55' E 023°05'0 0.0
2017-Mar-17 03:33N 37°55' E 023°05'0 0.0
2017-Mar-17 02:33N 37°55' E 023°05'6 6.0
2017-Mar-17 01:33N 37°53' E 023°13'9 9.3
2017-Mar-17 00:33N 37°51' E 023°24'1010.1
2017-Mar-16 23:33N 37°50' E 023°37'68 9.7
2017-Mar-16 16:33N 37°16' E 024°50'1010.2
2017-Mar-16 15:33N 37°09' E 025°00'10 0.5
2017-Mar-15 19:33N 37°09' E 025°13'8 8.4
2017-Mar-15 18:33N 37°06' E 025°22'0 0.0
2017-Mar-15 17:33N 37°06' E 025°22'0 0.0
2017-Mar-15 16:33N 37°06' E 025°22'0 0.0
2017-Mar-15 15:33N 37°06' E 025°22'0 0.0
2017-Mar-15 14:33N 37°06' E 025°22'4 4.2
2017-Mar-15 13:33N 37°03' E 025°18'  
2017-Mar-10 13:31N 37°14' E 025°27'10 9.8
2017-Mar-10 12:33N 37°16' E 025°16'78 9.7
2017-Mar-10 04:33N 37°40' E 023°42'1010.0
2017-Mar-10 03:34N 37°49' E 023°36'1010.0
2017-Mar-10 02:34N 37°51' E 023°23'1010.1
2017-Mar-10 01:33N 37°54' E 023°11'5 4.7
2017-Mar-10 00:34N 37°55' E 023°05'0 0.0
2017-Mar-09 23:34N 37°55' E 023°05'0 0.0
2017-Mar-09 22:33N 37°55' E 023°05'0 0.0
2017-Mar-09 21:34N 37°55' E 023°05'0 0.0
2017-Mar-09 20:33N 37°55' E 023°05'0 0.0
2017-Mar-09 19:33N 37°55' E 023°05'0 0.0
2017-Mar-09 18:33N 37°55' E 023°05'0 0.0
2017-Mar-09 17:33N 37°55' E 023°05'0 0.0
2017-Mar-09 16:33N 37°55' E 023°05'2 1.7
2017-Mar-09 15:32N 37°54' E 023°07'1111.3
2017-Mar-09 14:33N 37°52' E 023°21'9 9.2
2017-Mar-09 13:33N 37°51' E 023°33'9 9.3
2017-Mar-09 12:33N 37°46' E 023°42'6110.1
2017-Mar-09 06:32N 37°20' E 024°52'1410.3
2017-Mar-09 05:09N 37°14' E 025°08'610.4
2017-Mar-09 04:34N 37°11' E 025°15'8 7.6
2017-Mar-09 03:34N 37°06' E 025°22'0 0.0
2017-Mar-09 02:34N 37°06' E 025°22'0 0.0
2017-Mar-09 01:34N 37°06' E 025°22'0 0.0
2017-Mar-09 00:33N 37°06' E 025°22'0 0.0
2017-Mar-08 23:34N 37°06' E 025°22'0 0.0
2017-Mar-08 22:34N 37°06' E 025°22'1 0.7
2017-Mar-08 21:34N 37°07' E 025°22'6 5.8
2017-Mar-08 20:34N 37°10' E 025°16'9 1.1
2017-Mar-08 12:20N 37°05' E 025°06'  
Track history (hours):
 
Tides and Currents Weather Stations Pressure Air Temp Water Temp Dewpoint Dewpoint Depression Visibility Wind Speed Wind Dir Waves Ship Positions

Chrisanthi

Last reported at 2017-Mar-17 11:20 UTC. Time now 2017-Mar-23 12:32 UTC.
Position N 37°55' E 023°05'.

Length 56 m; draft 3.9 m.

Type: Ship (hazmat cat A). MMSI: 237009100.

Date/timePositionNaut miles runAvg speedWind from/ knotsBaromVisibWave heightAir tempDewpointWater temp
2017-Mar-17 11:20N 37°55' E 023°05'0 0.0
2017-Mar-17 10:34N 37°55' E 023°05'0 0.0
2017-Mar-17 09:30N 37°55' E 023°05'0 0.0
2017-Mar-17 08:27N 37°55' E 023°05'0 0.0
2017-Mar-17 07:30N 37°55' E 023°05'0 0.0
2017-Mar-17 06:32N 37°55' E 023°05'0 0.0
2017-Mar-17 05:32N 37°55' E 023°05'0 0.0
2017-Mar-17 04:33N 37°55' E 023°05'0 0.0
2017-Mar-17 03:33N 37°55' E 023°05'0 0.0
2017-Mar-17 02:33N 37°55' E 023°05'6 6.0
2017-Mar-17 01:33N 37°53' E 023°13'9 9.3
2017-Mar-17 00:33N 37°51' E 023°24'1010.1
2017-Mar-16 23:33N 37°50' E 023°37'68 9.7
2017-Mar-16 16:33N 37°16' E 024°50'1010.2
2017-Mar-16 15:33N 37°09' E 025°00'10 0.5
2017-Mar-15 19:33N 37°09' E 025°13'8 8.4
2017-Mar-15 18:33N 37°06' E 025°22'0 0.0
2017-Mar-15 17:33N 37°06' E 025°22'0 0.0
2017-Mar-15 16:33N 37°06' E 025°22'0 0.0
2017-Mar-15 15:33N 37°06' E 025°22'0 0.0
2017-Mar-15 14:33N 37°06' E 025°22'4 4.2
2017-Mar-15 13:33N 37°03' E 025°18'  
2017-Mar-10 13:31N 37°14' E 025°27'10 9.8
2017-Mar-10 12:33N 37°16' E 025°16'78 9.7
2017-Mar-10 04:33N 37°40' E 023°42'1010.0
2017-Mar-10 03:34N 37°49' E 023°36'1010.0
2017-Mar-10 02:34N 37°51' E 023°23'1010.1
2017-Mar-10 01:33N 37°54' E 023°11'5 4.7
2017-Mar-10 00:34N 37°55' E 023°05'0 0.0
2017-Mar-09 23:34N 37°55' E 023°05'0 0.0
2017-Mar-09 22:33N 37°55' E 023°05'0 0.0
2017-Mar-09 21:34N 37°55' E 023°05'0 0.0
2017-Mar-09 20:33N 37°55' E 023°05'0 0.0
2017-Mar-09 19:33N 37°55' E 023°05'0 0.0
2017-Mar-09 18:33N 37°55' E 023°05'0 0.0
2017-Mar-09 17:33N 37°55' E 023°05'0 0.0
2017-Mar-09 16:33N 37°55' E 023°05'2 1.7
2017-Mar-09 15:32N 37°54' E 023°07'1111.3
2017-Mar-09 14:33N 37°52' E 023°21'9 9.2
2017-Mar-09 13:33N 37°51' E 023°33'9 9.3
2017-Mar-09 12:33N 37°46' E 023°42'6110.1
2017-Mar-09 06:32N 37°20' E 024°52'1410.3
2017-Mar-09 05:09N 37°14' E 025°08'610.4
2017-Mar-09 04:34N 37°11' E 025°15'8 7.6
2017-Mar-09 03:34N 37°06' E 025°22'0 0.0
2017-Mar-09 02:34N 37°06' E 025°22'0 0.0
2017-Mar-09 01:34N 37°06' E 025°22'0 0.0
2017-Mar-09 00:33N 37°06' E 025°22'0 0.0
2017-Mar-08 23:34N 37°06' E 025°22'0 0.0
2017-Mar-08 22:34N 37°06' E 025°22'1 0.7
2017-Mar-08 21:34N 37°07' E 025°22'6 5.8
2017-Mar-08 20:34N 37°10' E 025°16'9 1.1
2017-Mar-08 12:20N 37°05' E 025°06'  

Dump ship's entire track history